sensor_id;sensor_type;location;lat;lon;timestamp;pressure;altitude;pressure_sealevel;temperature;humidity
33949;BME280;20229;49.856;19.030;2022-10-16T00:02:43;101767.22;;;15.84;69.28
33949;BME280;20229;49.856;19.030;2022-10-16T00:07:46;101755.10;;;15.86;69.50
33949;BME280;20229;49.856;19.030;2022-10-16T00:13:08;101773.67;;;15.83;69.33
33949;BME280;20229;49.856;19.030;2022-10-16T00:18:12;101789.05;;;15.87;69.00
33949;BME280;20229;49.856;19.030;2022-10-16T00:23:34;101786.48;;;15.84;69.14
33949;BME280;20229;49.856;19.030;2022-10-16T00:28:38;101785.50;;;15.85;69.12
33949;BME280;20229;49.856;19.030;2022-10-16T00:33:59;101795.11;;;15.77;69.47
33949;BME280;20229;49.856;19.030;2022-10-16T00:39:03;101790.59;;;15.76;69.56
33949;BME280;20229;49.856;19.030;2022-10-16T00:49:40;101796.91;;;15.63;70.07
33949;BME280;20229;49.856;19.030;2022-10-16T00:54:51;101801.89;;;15.56;70.44
33949;BME280;20229;49.856;19.030;2022-10-16T00:59:57;101783.39;;;15.58;70.73
33949;BME280;20229;49.856;19.030;2022-10-16T01:05:15;101802.66;;;15.58;70.41
33949;BME280;20229;49.856;19.030;2022-10-16T01:10:29;101793.27;;;15.62;69.89
33949;BME280;20229;49.856;19.030;2022-10-16T01:15:50;101798.95;;;15.59;70.34
33949;BME280;20229;49.856;19.030;2022-10-16T01:21:05;101791.25;;;15.66;70.21
33949;BME280;20229;49.856;19.030;2022-10-16T01:31:30;101805.54;;;15.72;70.47
33949;BME280;20229;49.856;19.030;2022-10-16T01:36:45;101809.53;;;15.67;70.71
33949;BME280;20229;49.856;19.030;2022-10-16T01:42:00;101804.91;;;15.67;71.08
33949;BME280;20229;49.856;19.030;2022-10-16T01:47:08;101806.12;;;15.62;71.67
33949;BME280;20229;49.856;19.030;2022-10-16T01:52:17;101792.17;;;15.65;71.34
33949;BME280;20229;49.856;19.030;2022-10-16T01:57:24;101808.68;;;15.65;71.64
33949;BME280;20229;49.856;19.030;2022-10-16T02:02:30;101799.40;;;15.67;71.97
33949;BME280;20229;49.856;19.030;2022-10-16T02:07:48;101796.20;;;15.59;71.91
33949;BME280;20229;49.856;19.030;2022-10-16T02:18:13;101807.86;;;15.33;72.79
33949;BME280;20229;49.856;19.030;2022-10-16T02:23:23;101815.75;;;15.23;72.39
33949;BME280;20229;49.856;19.030;2022-10-16T02:28:46;101826.60;;;15.10;73.20
33949;BME280;20229;49.856;19.030;2022-10-16T02:33:53;101836.25;;;15.01;74.09
33949;BME280;20229;49.856;19.030;2022-10-16T02:39:04;101837.06;;;14.88;74.81
33949;BME280;20229;49.856;19.030;2022-10-16T02:44:08;101831.90;;;14.81;74.45
33949;BME280;20229;49.856;19.030;2022-10-16T02:49:28;101839.05;;;14.68;74.45
33949;BME280;20229;49.856;19.030;2022-10-16T02:54:31;101839.05;;;14.68;75.18
33949;BME280;20229;49.856;19.030;2022-10-16T02:59:54;101828.81;;;14.54;75.86
33949;BME280;20229;49.856;19.030;2022-10-16T03:04:57;101842.82;;;14.50;75.69
33949;BME280;20229;49.856;19.030;2022-10-16T03:10:19;101847.27;;;14.35;76.30
33949;BME280;20229;49.856;19.030;2022-10-16T03:15:22;101848.01;;;14.21;77.52
33949;BME280;20229;49.856;19.030;2022-10-16T03:20:44;101846.30;;;14.01;77.19
33949;BME280;20229;49.856;19.030;2022-10-16T03:25:47;101857.03;;;13.88;77.88
33949;BME280;20229;49.856;19.030;2022-10-16T03:31:09;101863.17;;;13.76;77.92
33949;BME280;20229;49.856;19.030;2022-10-16T03:36:13;101873.17;;;13.77;78.00
33949;BME280;20229;49.856;19.030;2022-10-16T03:41:35;101867.37;;;13.83;77.51
33949;BME280;20229;49.856;19.030;2022-10-16T03:46:38;101869.51;;;13.96;77.58
33949;BME280;20229;49.856;19.030;2022-10-16T03:52:00;101867.70;;;13.95;78.09
33949;BME280;20229;49.856;19.030;2022-10-16T03:57:04;101868.01;;;13.88;78.10
33949;BME280;20229;49.856;19.030;2022-10-16T04:02:26;101871.71;;;13.70;78.57
33949;BME280;20229;49.856;19.030;2022-10-16T04:07:29;101875.52;;;13.68;78.06
33949;BME280;20229;49.856;19.030;2022-10-16T04:12:51;101874.54;;;13.69;78.25
33949;BME280;20229;49.856;19.030;2022-10-16T04:17:58;101876.74;;;13.79;78.84
33949;BME280;20229;49.856;19.030;2022-10-16T04:23:17;101882.23;;;13.79;78.63
33949;BME280;20229;49.856;19.030;2022-10-16T04:28:20;101875.91;;;13.77;77.99
33949;BME280;20229;49.856;19.030;2022-10-16T04:33:43;101876.80;;;13.60;79.45
33949;BME280;20229;49.856;19.030;2022-10-16T04:38:47;101879.41;;;13.45;79.98
33949;BME280;20229;49.856;19.030;2022-10-16T04:44:08;101883.12;;;13.25;80.79
33949;BME280;20229;49.856;19.030;2022-10-16T04:49:11;101883.79;;;13.11;81.47
33949;BME280;20229;49.856;19.030;2022-10-16T04:54:37;101872.74;;;12.94;81.79
33949;BME280;20229;49.856;19.030;2022-10-16T04:59:40;101878.88;;;12.99;82.35
33949;BME280;20229;49.856;19.030;2022-10-16T05:05:05;101875.98;;;13.21;81.86
33949;BME280;20229;49.856;19.030;2022-10-16T05:10:08;101885.34;;;13.54;80.53
33949;BME280;20229;49.856;19.030;2022-10-16T05:15:30;101874.88;;;13.80;80.49
33949;BME280;20229;49.856;19.030;2022-10-16T05:20:34;101868.43;;;13.98;79.98
33949;BME280;20229;49.856;19.030;2022-10-16T05:25:57;101879.83;;;14.08;79.41
33949;BME280;20229;49.856;19.030;2022-10-16T05:31:06;101885.64;;;14.19;79.02
33949;BME280;20229;49.856;19.030;2022-10-16T05:36:21;101890.72;;;14.27;78.67
33949;BME280;20229;49.856;19.030;2022-10-16T05:41:24;101890.96;;;14.40;78.31
33949;BME280;20229;49.856;19.030;2022-10-16T05:46:46;101904.88;;;14.54;77.91
33949;BME280;20229;49.856;19.030;2022-10-16T05:51:50;101910.09;;;14.76;76.95
33949;BME280;20229;49.856;19.030;2022-10-16T05:57:12;101925.83;;;14.90;76.78
33949;BME280;20229;49.856;19.030;2022-10-16T06:02:15;101918.68;;;15.03;75.79
33949;BME280;20229;49.856;19.030;2022-10-16T06:07:37;101924.91;;;15.06;75.84
33949;BME280;20229;49.856;19.030;2022-10-16T06:12:41;101931.83;;;15.14;75.52
33949;BME280;20229;49.856;19.030;2022-10-16T06:18:03;101939.98;;;15.15;75.56
33949;BME280;20229;49.856;19.030;2022-10-16T06:23:06;101941.89;;;15.30;74.81
33949;BME280;20229;49.856;19.030;2022-10-16T06:28:28;101947.67;;;15.42;74.91
33949;BME280;20229;49.856;19.030;2022-10-16T06:33:32;101955.68;;;15.62;74.42
33949;BME280;20229;49.856;19.030;2022-10-16T06:38:54;101956.04;;;15.88;74.19
33949;BME280;20229;49.856;19.030;2022-10-16T06:43:58;101962.91;;;16.27;72.44
33949;BME280;20229;49.856;19.030;2022-10-16T06:49:19;101973.03;;;16.56;71.42
33949;BME280;20229;49.856;19.030;2022-10-16T06:54:25;101979.44;;;16.87;70.69
33949;BME280;20229;49.856;19.030;2022-10-16T06:59:44;101987.36;;;17.22;69.95
33949;BME280;20229;49.856;19.030;2022-10-16T07:06:05;101998.07;;;17.83;67.89
33949;BME280;20229;49.856;19.030;2022-10-16T07:11:25;102002.51;;;18.40;66.86
33949;BME280;20229;49.856;19.030;2022-10-16T07:16:31;101989.16;;;18.99;65.43
33949;BME280;20229;49.856;19.030;2022-10-16T07:21:53;101991.77;;;19.77;63.99
33949;BME280;20229;49.856;19.030;2022-10-16T07:26:56;101987.54;;;21.61;59.55
33949;BME280;20229;49.856;19.030;2022-10-16T07:32:17;102016.70;;;22.55;57.08
33949;BME280;20229;49.856;19.030;2022-10-16T07:37:20;102020.73;;;22.51;54.83
33949;BME280;20229;49.856;19.030;2022-10-16T07:42:42;102023.23;;;22.22;55.29
33949;BME280;20229;49.856;19.030;2022-10-16T07:47:46;102021.37;;;21.88;56.81
33949;BME280;20229;49.856;19.030;2022-10-16T07:53:08;102017.33;;;21.59;56.92
33949;BME280;20229;49.856;19.030;2022-10-16T07:58:12;102019.60;;;21.76;57.89
33949;BME280;20229;49.856;19.030;2022-10-16T08:03:34;102020.82;;;22.93;54.85
33949;BME280;20229;49.856;19.030;2022-10-16T08:08:37;102008.63;;;24.95;51.36
33949;BME280;20229;49.856;19.030;2022-10-16T08:13:59;102015.32;;;25.41;47.24
33949;BME280;20229;49.856;19.030;2022-10-16T08:19:03;102032.44;;;24.90;48.17
33949;BME280;20229;49.856;19.030;2022-10-16T08:24:24;102046.24;;;24.43;48.13
33949;BME280;20229;49.856;19.030;2022-10-16T08:29:29;102042.01;;;24.08;48.04
33949;BME280;20229;49.856;19.030;2022-10-16T08:34:50;102047.49;;;23.79;49.11
33949;BME280;20229;49.856;19.030;2022-10-16T08:39:53;102048.92;;;23.73;48.27
33949;BME280;20229;49.856;19.030;2022-10-16T08:50:31;102053.38;;;23.13;50.22
33949;BME280;20229;49.856;19.030;2022-10-16T08:55:47;102064.49;;;22.92;50.95
33949;BME280;20229;49.856;19.030;2022-10-16T09:00:56;102056.08;;;22.71;51.06
33949;BME280;20229;49.856;19.030;2022-10-16T09:11:34;102044.16;;;22.80;50.14
33949;BME280;20229;49.856;19.030;2022-10-16T09:21:49;102043.37;;;23.31;50.38
33949;BME280;20229;49.856;19.030;2022-10-16T09:26:56;102055.73;;;23.38;50.60
33949;BME280;20229;49.856;19.030;2022-10-16T09:37:23;102064.61;;;24.05;49.49
33949;BME280;20229;49.856;19.030;2022-10-16T09:42:34;102061.09;;;24.03;49.23
33949;BME280;20229;49.856;19.030;2022-10-16T09:47:47;102070.13;;;23.85;48.87
33949;BME280;20229;49.856;19.030;2022-10-16T09:53:01;102082.94;;;23.98;49.35
33949;BME280;20229;49.856;19.030;2022-10-16T09:58:13;102072.31;;;23.82;48.59
33949;BME280;20229;49.856;19.030;2022-10-16T10:03:32;102080.20;;;23.77;49.81
33949;BME280;20229;49.856;19.030;2022-10-16T10:08:38;102084.89;;;23.76;49.68
33949;BME280;20229;49.856;19.030;2022-10-16T10:13:41;102101.80;;;23.84;48.93
33949;BME280;20229;49.856;19.030;2022-10-16T10:19:03;102099.28;;;23.81;48.82
33949;BME280;20229;49.856;19.030;2022-10-16T10:24:13;102088.89;;;23.83;48.46
33949;BME280;20229;49.856;19.030;2022-10-16T10:29:44;102103.20;;;23.69;48.65
33949;BME280;20229;49.856;19.030;2022-10-16T10:34:56;102100.94;;;23.42;48.84
33949;BME280;20229;49.856;19.030;2022-10-16T10:40:29;102093.48;;;23.22;49.26
33949;BME280;20229;49.856;19.030;2022-10-16T10:45:27;102094.02;;;23.16;48.72
33949;BME280;20229;49.856;19.030;2022-10-16T10:50:41;102108.36;;;23.11;50.09
33949;BME280;20229;49.856;19.030;2022-10-16T11:06:20;102105.25;;;22.93;50.67
33949;BME280;20229;49.856;19.030;2022-10-16T11:11:40;102105.45;;;22.69;50.20
33949;BME280;20229;49.856;19.030;2022-10-16T11:16:53;102111.23;;;22.77;50.68
33949;BME280;20229;49.856;19.030;2022-10-16T11:22:06;102109.54;;;22.86;51.25
33949;BME280;20229;49.856;19.030;2022-10-16T11:27:17;102106.83;;;23.07;50.90
33949;BME280;20229;49.856;19.030;2022-10-16T11:32:32;102095.24;;;23.23;50.05
33949;BME280;20229;49.856;19.030;2022-10-16T11:37:41;102105.55;;;23.32;51.05
33949;BME280;20229;49.856;19.030;2022-10-16T11:42:58;102099.33;;;23.19;50.54
33949;BME280;20229;49.856;19.030;2022-10-16T12:09:34;102099.89;;;22.69;51.92
33949;BME280;20229;49.856;19.030;2022-10-16T12:14:34;102092.16;;;22.61;52.02
33949;BME280;20229;49.856;19.030;2022-10-16T12:19:39;102093.70;;;22.65;51.83
33949;BME280;20229;49.856;19.030;2022-10-16T12:24:43;102096.84;;;22.72;51.63
33949;BME280;20229;49.856;19.030;2022-10-16T12:29:46;102105.25;;;22.93;51.44
33949;BME280;20229;49.856;19.030;2022-10-16T12:34:51;102109.67;;;22.96;51.38
33949;BME280;20229;49.856;19.030;2022-10-16T12:39:55;102127.16;;;22.86;50.37
33949;BME280;20229;49.856;19.030;2022-10-16T12:45:01;102121.14;;;22.70;50.62
33949;BME280;20229;49.856;19.030;2022-10-16T12:55:24;102133.80;;;22.63;51.25
33949;BME280;20229;49.856;19.030;2022-10-16T13:00:40;102130.51;;;22.69;51.12
33949;BME280;20229;49.856;19.030;2022-10-16T13:22:05;102142.97;;;22.31;52.44
33949;BME280;20229;49.856;19.030;2022-10-16T13:27:07;102141.21;;;22.30;52.39
33949;BME280;20229;49.856;19.030;2022-10-16T13:32:15;102140.68;;;22.36;52.74
33949;BME280;20229;49.856;19.030;2022-10-16T13:37:21;102138.29;;;22.32;52.77
33949;BME280;20229;49.856;19.030;2022-10-16T13:42:28;102139.69;;;22.37;52.99
33949;BME280;20229;49.856;19.030;2022-10-16T13:47:32;102150.66;;;22.39;52.98
33949;BME280;20229;49.856;19.030;2022-10-16T13:52:36;102148.23;;;22.57;52.88
33949;BME280;20229;49.856;19.030;2022-10-16T14:03:15;102145.88;;;22.96;52.42
33949;BME280;20229;49.856;19.030;2022-10-16T14:08:25;102137.68;;;22.83;51.88
33949;BME280;20229;49.856;19.030;2022-10-16T14:19:00;102139.27;;;21.97;53.20
33949;BME280;20229;49.856;19.030;2022-10-16T14:24:11;102152.77;;;21.68;54.43
33949;BME280;20229;49.856;19.030;2022-10-16T14:29:18;102167.10;;;21.39;56.07
33949;BME280;20229;49.856;19.030;2022-10-16T14:34:31;102166.26;;;21.26;55.57
33949;BME280;20229;49.856;19.030;2022-10-16T14:39:40;102171.13;;;21.11;56.65
33949;BME280;20229;49.856;19.030;2022-10-16T14:44:44;102163.16;;;21.07;56.48
33949;BME280;20229;49.856;19.030;2022-10-16T14:50:08;102167.10;;;20.91;56.51
33949;BME280;20229;49.856;19.030;2022-10-16T14:55:12;102160.62;;;20.80;56.75
33949;BME280;20229;49.856;19.030;2022-10-16T15:00:31;102179.98;;;20.68;57.33
33949;BME280;20229;49.856;19.030;2022-10-16T15:05:34;102185.76;;;20.65;57.64
33949;BME280;20229;49.856;19.030;2022-10-16T15:10:57;102188.79;;;20.49;57.96
33949;BME280;20229;49.856;19.030;2022-10-16T15:16:00;102181.59;;;20.34;58.26
33949;BME280;20229;49.856;19.030;2022-10-16T15:21:29;102182.87;;;20.04;59.02
33949;BME280;20229;49.856;19.030;2022-10-16T15:26:33;102187.20;;;19.83;59.09
33949;BME280;20229;49.856;19.030;2022-10-16T15:31:47;102182.59;;;19.56;59.68
33949;BME280;20229;49.856;19.030;2022-10-16T15:36:51;102179.66;;;19.32;60.21
33949;BME280;20229;49.856;19.030;2022-10-16T15:42:13;102193.43;;;19.07;61.31
33949;BME280;20229;49.856;19.030;2022-10-16T15:47:16;102186.40;;;18.89;61.85
33949;BME280;20229;49.856;19.030;2022-10-16T15:52:39;102189.10;;;18.61;62.87
33949;BME280;20229;49.856;19.030;2022-10-16T15:57:44;102198.63;;;18.43;63.42
33949;BME280;20229;49.856;19.030;2022-10-16T16:03:05;102211.48;;;18.15;64.41
33949;BME280;20229;49.856;19.030;2022-10-16T16:08:08;102218.81;;;18.02;65.38
33949;BME280;20229;49.856;19.030;2022-10-16T16:13:30;102219.96;;;17.84;65.85
33949;BME280;20229;49.856;19.030;2022-10-16T16:18:35;102226.41;;;17.68;66.64
33949;BME280;20229;49.856;19.030;2022-10-16T16:23:55;102235.73;;;17.52;66.69
33949;BME280;20229;49.856;19.030;2022-10-16T16:28:59;102234.45;;;17.43;67.18
33949;BME280;20229;49.856;19.030;2022-10-16T16:34:21;102247.38;;;17.27;67.67
33949;BME280;20229;49.856;19.030;2022-10-16T16:39:24;102246.34;;;17.13;69.21
33949;BME280;20229;49.856;19.030;2022-10-16T16:44:47;102244.85;;;16.92;69.75
33949;BME280;20229;49.856;19.030;2022-10-16T16:49:52;102249.23;;;16.80;70.19
33949;BME280;20229;49.856;19.030;2022-10-16T16:55:12;102267.68;;;16.62;70.86
33949;BME280;20229;49.856;19.030;2022-10-16T17:00:15;102274.15;;;16.45;71.97
33949;BME280;20229;49.856;19.030;2022-10-16T17:05:37;102288.41;;;16.20;72.45
33949;BME280;20229;49.856;19.030;2022-10-16T17:10:44;102294.93;;;16.02;71.60
33949;BME280;20229;49.856;19.030;2022-10-16T17:16:05;102292.51;;;15.78;73.81
33949;BME280;20229;49.856;19.030;2022-10-16T17:21:09;102310.57;;;15.67;73.39
33949;BME280;20229;49.856;19.030;2022-10-16T17:26:29;102334.25;;;15.52;74.80
33949;BME280;20229;49.856;19.030;2022-10-16T17:31:35;102338.44;;;15.42;74.33
33949;BME280;20229;49.856;19.030;2022-10-16T17:36:54;102343.82;;;15.26;76.39
33949;BME280;20229;49.856;19.030;2022-10-16T17:41:57;102356.09;;;15.19;76.23
33949;BME280;20229;49.856;19.030;2022-10-16T17:47:19;102372.48;;;15.03;77.21
33949;BME280;20229;49.856;19.030;2022-10-16T17:52:23;102375.45;;;14.98;76.19
33949;BME280;20229;49.856;19.030;2022-10-16T17:57:45;102378.73;;;14.88;77.95
33949;BME280;20229;49.856;19.030;2022-10-16T18:02:49;102380.12;;;14.77;78.26
33949;BME280;20229;49.856;19.030;2022-10-16T18:08:10;102385.44;;;14.62;79.08
33949;BME280;20229;49.856;19.030;2022-10-16T18:13:15;102401.32;;;14.55;79.51
33949;BME280;20229;49.856;19.030;2022-10-16T18:18:36;102414.09;;;14.35;80.58
33949;BME280;20229;49.856;19.030;2022-10-16T18:23:42;102416.43;;;14.24;80.23
33949;BME280;20229;49.856;19.030;2022-10-16T18:29:02;102411.59;;;14.09;81.26
33949;BME280;20229;49.856;19.030;2022-10-16T18:34:10;102402.82;;;14.01;80.60
33949;BME280;20229;49.856;19.030;2022-10-16T18:39:27;102411.45;;;13.92;81.58
33949;BME280;20229;49.856;19.030;2022-10-16T18:44:31;102411.57;;;13.88;81.48
33949;BME280;20229;49.856;19.030;2022-10-16T18:49:53;102416.17;;;13.88;81.92
33949;BME280;20229;49.856;19.030;2022-10-16T18:54:59;102414.13;;;13.93;82.26
33949;BME280;20229;49.856;19.030;2022-10-16T19:00:19;102415.28;;;13.87;81.85
33949;BME280;20229;49.856;19.030;2022-10-16T19:05:24;102420.64;;;13.91;82.31
33949;BME280;20229;49.856;19.030;2022-10-16T19:10:45;102431.51;;;13.94;81.71
33949;BME280;20229;49.856;19.030;2022-10-16T19:15:49;102439.54;;;13.98;82.47
33949;BME280;20229;49.856;19.030;2022-10-16T19:21:12;102444.27;;;13.95;81.54
33949;BME280;20229;49.856;19.030;2022-10-16T19:26:21;102455.12;;;13.98;80.65
33949;BME280;20229;49.856;19.030;2022-10-16T19:31:37;102453.21;;;14.00;81.95
33949;BME280;20229;49.856;19.030;2022-10-16T19:36:42;102462.00;;;14.08;81.23
33949;BME280;20229;49.856;19.030;2022-10-16T19:42:02;102466.53;;;14.09;81.68
33949;BME280;20229;49.856;19.030;2022-10-16T19:47:06;102461.11;;;14.07;80.56
33949;BME280;20229;49.856;19.030;2022-10-16T19:52:28;102465.72;;;14.07;81.76
33949;BME280;20229;49.856;19.030;2022-10-16T19:57:35;102464.88;;;14.05;81.86
33949;BME280;20229;49.856;19.030;2022-10-16T20:02:53;102476.19;;;13.97;82.11
33949;BME280;20229;49.856;19.030;2022-10-16T20:07:57;102482.83;;;13.92;81.43
33949;BME280;20229;49.856;19.030;2022-10-16T20:13:20;102484.33;;;13.78;82.39
33949;BME280;20229;49.856;19.030;2022-10-16T20:18:24;102481.95;;;13.69;83.07
33949;BME280;20229;49.856;19.030;2022-10-16T20:23:45;102489.86;;;13.55;83.34
33949;BME280;20229;49.856;19.030;2022-10-16T20:28:53;102493.80;;;13.48;83.65
33949;BME280;20229;49.856;19.030;2022-10-16T20:34:11;102501.73;;;13.32;84.30
33949;BME280;20229;49.856;19.030;2022-10-16T20:39:15;102499.29;;;13.24;84.09
33949;BME280;20229;49.856;19.030;2022-10-16T20:44:36;102505.27;;;13.10;85.20
33949;BME280;20229;49.856;19.030;2022-10-16T20:49:39;102517.51;;;13.02;84.99
33949;BME280;20229;49.856;19.030;2022-10-16T20:55:03;102522.55;;;12.89;86.10
33949;BME280;20229;49.856;19.030;2022-10-16T21:00:08;102520.05;;;12.83;86.59
33949;BME280;20229;49.856;19.030;2022-10-16T21:05:30;102524.91;;;12.75;86.16
33949;BME280;20229;49.856;19.030;2022-10-16T21:10:36;102523.90;;;12.77;86.03
33949;BME280;20229;49.856;19.030;2022-10-16T21:15:55;102526.63;;;12.77;86.03
33949;BME280;20229;49.856;19.030;2022-10-16T21:20:58;102541.69;;;12.90;85.82
33949;BME280;20229;49.856;19.030;2022-10-16T21:26:23;102557.66;;;13.03;86.40
33949;BME280;20229;49.856;19.030;2022-10-16T21:31:30;102554.17;;;13.23;85.46
33949;BME280;20229;49.856;19.030;2022-10-16T21:36:47;102566.45;;;13.37;85.21
33949;BME280;20229;49.856;19.030;2022-10-16T21:41:51;102557.02;;;13.45;84.89
33949;BME280;20229;49.856;19.030;2022-10-16T21:47:14;102575.52;;;13.39;84.77
33949;BME280;20229;49.856;19.030;2022-10-16T21:52:18;102578.38;;;13.36;85.22
33949;BME280;20229;49.856;19.030;2022-10-16T21:57:39;102565.59;;;13.35;85.06
33949;BME280;20229;49.856;19.030;2022-10-16T22:02:43;102571.63;;;13.45;84.44
33949;BME280;20229;49.856;19.030;2022-10-16T22:08:05;102582.57;;;13.47;84.03
33949;BME280;20229;49.856;19.030;2022-10-16T22:13:09;102579.34;;;13.59;84.76
33949;BME280;20229;49.856;19.030;2022-10-16T22:18:31;102594.68;;;13.65;84.01
33949;BME280;20229;49.856;19.030;2022-10-16T22:23:34;102591.73;;;13.69;84.08
33949;BME280;20229;49.856;19.030;2022-10-16T22:28:56;102605.69;;;13.63;84.14
33949;BME280;20229;49.856;19.030;2022-10-16T22:34:02;102620.30;;;13.63;83.98
33949;BME280;20229;49.856;19.030;2022-10-16T22:39:22;102619.60;;;13.58;85.26
33949;BME280;20229;49.856;19.030;2022-10-16T22:44:25;102614.00;;;13.61;84.36
33949;BME280;20229;49.856;19.030;2022-10-16T22:49:47;102617.82;;;13.57;85.99
33949;BME280;20229;49.856;19.030;2022-10-16T22:54:51;102610.24;;;13.64;85.51
33949;BME280;20229;49.856;19.030;2022-10-16T23:00:16;102604.87;;;13.61;86.15
33949;BME280;20229;49.856;19.030;2022-10-16T23:05:19;102609.40;;;13.62;85.47
33949;BME280;20229;49.856;19.030;2022-10-16T23:10:43;102612.48;;;13.53;85.95
33949;BME280;20229;49.856;19.030;2022-10-16T23:15:47;102611.98;;;13.43;86.05
33949;BME280;20229;49.856;19.030;2022-10-16T23:21:09;102610.67;;;13.28;85.92
33949;BME280;20229;49.856;19.030;2022-10-16T23:26:15;102610.92;;;13.21;85.93
33949;BME280;20229;49.856;19.030;2022-10-16T23:31:29;102622.25;;;13.11;86.19
33949;BME280;20229;49.856;19.030;2022-10-16T23:36:33;102611.40;;;13.08;85.78
33949;BME280;20229;49.856;19.030;2022-10-16T23:41:56;102616.21;;;13.02;86.40
33949;BME280;20229;49.856;19.030;2022-10-16T23:46:59;102605.73;;;13.13;86.10
33949;BME280;20229;49.856;19.030;2022-10-16T23:52:23;102616.41;;;13.21;85.90
33949;BME280;20229;49.856;19.030;2022-10-16T23:57:26;102613.37;;;13.30;85.04
